Terminal Aerodrome Forecast
Issued by NWS Green Bay, WI

Home | Current Version | Previous Version | Text Only | Print | Product List | Glossary Off
Versions: 1 2 3 4 5 6 7 8 9 10 11 12 13 14 15 16 17 18 19 20 21 22 23 24 25 26 27 28 29 30

000
FTUS43 KGRB 242200 AAB
TAFGRB
TAF AMD
KGRB 242214Z 2422/2518 18006KT 6SM BR SCT009 BKN080
      TEMPO 2422/2424 3SM BR BKN009
     FM250000 20005KT P6SM SCT025 BKN050
      TEMPO 2502/2506 4SM BR BKN025
     FM250600 26005KT 5SM BR SCT012
     FM251300 29013KT P6SM SCT025=

USA.gov is the U.S. government's official web portal to all federal, state and local government web resources and services.